San Francisco, CA (94130)

10:03 PM PST on November 27, 2014 (GMT -0800)
PIER 41, Fisherman's Wharf | Change Station
CLOSE
Current Station
Personal Weather Station
Location: San Francisco, CA
Elevation: 3 ft
Nearby Weather Stations

Elev 3 ft 37.81 °N, 122.41 °W | Updated 7 seconds ago

Clear
Clear
55.4 °F
Feels Like 55.4 °F
N
2.7
Wind Variable Wind from West
Gusts 4.9 mph

Today
High -- | Low -- °F
--% Chance of Precip.
Yesterday
High -- | Low -- °F
Precip. -- in
7:02 AM 4:51 PM
Waxing Crescent, 37% visible
Pressure 30.07 in
Visibility 5.0 miles
Clouds Clear
Dew Point 55 °F
Humidity 99%
Rainfall 0.00 in
Snow Depth Not available.
UV 0 out of 12
Pollen 2.50 out of 12
Air Quality Not available.
Flu Activity Not available.
METAR KOAK 280553Z 35003KT 5SM MIFG CLR 09/07 A3007 RMK AO2 SLP182 T00940067 10172 20083 51004 $

More Conditions Fewer Conditions

Pressure 30.07 in
Visibility 5.0 miles
Clouds Clear
Dew Point 55 °F
Humidity 99%
Rainfall 0.00 in
Snow Depth Not available.
UV 0 out of 12
Pollen 2.50 out of 12
Air Quality Not available.
Flu Activity Not available.
METAR KOAK 280553Z 35003KT 5SM MIFG CLR 09/07 A3007 RMK AO2 SLP182 T00940067 10172 20083 51004 $

More Conditions Fewer Conditions

10-Day Weather Forecast

Almanac

Astronomy

Nov. 27, 2014 Rise Set
Actual Time
Civil Twilight
Nautical Twilight
Astronomical Twilight
Moon
Length of Visible Light
Length of Day
Tomorrow will be .
, % of the Moon is Illuminated

Today's Extremes

State Highs State Lows

Community

WunderPhotos

Upload Photos

1,774,197 photos uploaded!

WunderBlogs® & News

Nearby

Air Quality

  Air Quality AQ Index Pollutant
Not available.

Snow Depth

Station Depth Elevation

Earthquake Activity

City Distance Mag. Time & Date
Minimum magnitude displayed is 2.5.

Coastal Water Temperatures

Place Temperature

Nearby Weather Stations